Time;durP1;ratioP1;P1;durP2;ratioP2;P2;SDS_P1;SDS_P2;PMS_P1;PMS_P2;Temp;Humidity;BMP_temperature;BMP_pressure;BME280_temperature;BME280_humidity;BME280_pressure;Samples;Min_cycle;Max_cycle;Signal;HPM_P1;HPM_P2
2024/04/07 00:00:48;;;;;;;0.00;0.00;;;14.00;85.00;;;;;;5027233;28;20024;-82
2024/04/07 00:03:14;;;;;;;0.10;0.10;;;14.10;85.10;;;;;;5049223;28;20029;-82
2024/04/07 00:05:40;;;;;;;0.10;0.10;;;14.00;84.90;;;;;;5026985;28;20076;-82
2024/04/07 00:08:06;;;;;;;0.00;0.00;;;14.10;84.70;;;;;;5016038;28;20388;-82
2024/04/07 00:10:31;;;;;;;0.10;0.10;;;14.00;84.80;;;;;;5032079;28;20030;-81
2024/04/07 00:12:57;;;;;;;0.10;0.10;;;13.90;84.50;;;;;;5015893;28;20393;-82
2024/04/07 00:15:22;;;;;;;0.00;0.00;;;14.00;84.60;;;;;;5031218;28;20021;-82
2024/04/07 00:17:49;;;;;;;0.10;0.10;;;13.90;84.50;;;;;;5016115;28;20022;-82
2024/04/07 00:20:15;;;;;;;0.00;0.00;;;13.80;84.40;;;;;;5016810;28;20060;-82
2024/04/07 00:22:40;;;;;;;0.00;0.00;;;13.80;84.50;;;;;;5015878;28;20038;-82
2024/04/07 00:25:06;;;;;;;0.00;0.00;;;13.70;84.30;;;;;;5016096;28;20034;-82
2024/04/07 00:27:32;;;;;;;0.08;0.08;;;13.80;84.30;;;;;;5016030;28;20030;-82
2024/04/07 00:29:57;;;;;;;0.10;0.10;;;13.70;84.40;;;;;;5024837;28;20108;-82
2024/04/07 00:32:23;;;;;;;0.10;0.10;;;13.70;84.40;;;;;;5021440;28;20025;-82
2024/04/07 00:34:50;;;;;;;0.10;0.10;;;13.70;84.30;;;;;;5021844;28;20037;-82
2024/04/07 00:37:16;;;;;;;0.00;0.00;;;13.70;84.50;;;;;;5039592;28;20038;-82
2024/04/07 00:39:43;;;;;;;0.00;0.00;;;13.70;84.50;;;;;;5039044;28;20017;-82
2024/04/07 00:42:09;;;;;;;0.10;0.10;;;13.60;84.50;;;;;;5019342;28;20026;-82
2024/04/07 00:44:36;;;;;;;0.10;0.10;;;13.60;84.50;;;;;;5019715;28;20030;-82
2024/04/07 00:47:02;;;;;;;0.00;0.00;;;13.60;84.40;;;;;;5019027;28;20565;-81
2024/04/07 00:49:28;;;;;;;0.10;0.10;;;13.50;84.50;;;;;;5019447;28;20033;-82
2024/04/07 00:51:54;;;;;;;0.00;0.00;;;13.50;84.60;;;;;;5035014;28;20036;-82
2024/04/07 00:54:21;;;;;;;0.00;0.00;;;13.50;84.40;;;;;;5018040;28;20117;-82
2024/04/07 00:56:47;;;;;;;0.10;0.10;;;13.50;84.30;;;;;;5018879;28;20117;-82
2024/04/07 00:59:13;;;;;;;0.00;0.00;;;13.40;84.50;;;;;;5019485;28;20057;-82
2024/04/07 01:01:39;;;;;;;0.10;0.10;;;13.40;84.60;;;;;;5028832;28;20494;-82
2024/04/07 01:04:04;;;;;;;0.10;0.10;;;13.50;84.70;;;;;;5032483;28;20026;-82
2024/04/07 01:06:30;;;;;;;0.00;0.00;;;13.50;84.40;;;;;;5019567;28;20056;-82
2024/04/07 01:08:56;;;;;;;0.00;0.00;;;13.50;84.30;;;;;;5019123;28;20034;-82
2024/04/07 01:11:29;;;;;;;0.00;0.00;;;13.40;84.30;;;;;;5017776;28;20037;-82
2024/04/07 01:13:55;;;;;;;0.00;0.00;;;13.30;84.20;;;;;;5018781;28;20030;-82
2024/04/07 01:16:21;;;;;;;0.10;0.10;;;13.40;84.40;;;;;;5018658;28;20033;-82
2024/04/07 01:18:47;;;;;;;0.10;0.10;;;13.30;84.30;;;;;;5019159;28;20085;-82
2024/04/07 01:21:13;;;;;;;0.00;0.00;;;13.30;84.40;;;;;;5019048;28;20046;-82
2024/04/07 01:23:39;;;;;;;0.00;0.00;;;13.20;84.60;;;;;;5017471;28;20033;-82
2024/04/07 01:26:05;;;;;;;0.00;0.00;;;13.20;84.70;;;;;;5052534;28;20029;-82
2024/04/07 01:28:30;;;;;;;0.10;0.10;;;13.20;84.80;;;;;;5040218;28;20064;-82
2024/04/07 01:30:56;;;;;;;0.00;0.00;;;13.20;84.90;;;;;;5031917;28;20030;-82
2024/04/07 01:33:21;;;;;;;0.10;0.10;;;13.20;84.70;;;;;;5038493;28;20021;-83
2024/04/07 01:35:48;;;;;;;0.10;0.10;;;13.20;84.70;;;;;;5038484;28;20036;-81
2024/04/07 01:38:16;;;;;;;0.00;0.00;;;13.10;84.60;;;;;;5019912;28;20036;-81
2024/04/07 01:40:44;;;;;;;0.00;0.00;;;13.10;84.70;;;;;;5038227;28;20025;-81
2024/04/07 01:43:10;;;;;;;0.00;0.00;;;13.10;84.60;;;;;;5020338;28;20033;-81
2024/04/07 01:45:35;;;;;;;0.00;0.00;;;13.00;84.60;;;;;;5038516;28;20025;-81
2024/04/07 01:48:01;;;;;;;0.00;0.00;;;13.00;84.60;;;;;;5031050;28;20088;-81
2024/04/07 01:50:27;;;;;;;0.10;0.10;;;13.00;84.60;;;;;;5017955;28;20088;-81
2024/04/07 01:52:53;;;;;;;0.10;0.10;;;12.90;84.50;;;;;;5018167;28;20061;-81
2024/04/07 01:55:18;;;;;;;0.10;0.10;;;13.00;84.80;;;;;;5017052;28;20022;-81
2024/04/07 01:57:44;;;;;;;0.00;0.00;;;12.90;84.70;;;;;;5017909;28;20125;-81
2024/04/07 02:00:10;;;;;;;0.10;0.10;;;12.90;84.90;;;;;;5035792;28;20418;-81
2024/04/07 02:02:37;;;;;;;0.00;0.00;;;12.90;84.90;;;;;;5037545;28;20013;-81
2024/04/07 02:05:05;;;;;;;0.10;0.10;;;12.90;85.00;;;;;;5022058;28;20094;-81
2024/04/07 02:07:32;;;;;;;0.10;0.10;;;12.80;84.90;;;;;;5016649;28;20033;-81
2024/04/07 02:09:58;;;;;;;0.00;0.00;;;12.80;85.20;;;;;;5016677;28;20090;-81
2024/04/07 02:12:24;;;;;;;0.10;0.10;;;12.80;85.30;;;;;;5017767;28;20615;-82
2024/04/07 02:14:49;;;;;;;0.10;0.10;;;12.80;85.30;;;;;;5031329;28;20408;-81
2024/04/07 02:17:15;;;;;;;0.10;0.10;;;12.70;85.40;;;;;;5037420;28;20033;-81
2024/04/07 02:19:41;;;;;;;0.03;0.03;;;12.70;85.60;;;;;;5037657;28;20025;-81
2024/04/07 02:22:07;;;;;;;0.10;0.10;;;12.60;85.70;;;;;;5037086;28;20120;-81
2024/04/07 02:24:32;;;;;;;0.10;0.10;;;12.70;85.70;;;;;;5018328;28;20055;-81
2024/04/07 02:26:58;;;;;;;0.00;0.00;;;12.60;85.70;;;;;;5037682;28;20033;-81
2024/04/07 02:29:24;;;;;;;0.10;0.10;;;12.60;85.80;;;;;;5019302;28;20025;-81
2024/04/07 02:31:49;;;;;;;0.00;0.00;;;12.60;85.70;;;;;;5019833;28;20037;-80
2024/04/07 02:34:16;;;;;;;0.10;0.10;;;12.60;85.80;;;;;;5019385;28;20484;-81
2024/04/07 02:36:41;;;;;;;0.00;0.00;;;12.50;85.70;;;;;;5036068;28;20029;-81
2024/04/07 02:39:10;;;;;;;0.10;0.10;;;12.50;85.80;;;;;;5020790;28;20030;-81
2024/04/07 02:41:40;;;;;;;0.10;0.10;;;12.50;85.80;;;;;;5016937;28;20025;-81
2024/04/07 02:44:06;;;;;;;0.00;0.00;;;12.50;85.90;;;;;;5016994;28;20110;-81
2024/04/07 02:49:16;;;;;;;0.10;0.10;;;12.50;86.00;;;;;;5017433;28;20044;-81
2024/04/07 02:51:42;;;;;;;0.05;0.05;;;12.40;86.00;;;;;;4999539;28;20022;-81
2024/04/07 02:54:07;;;;;;;0.10;0.10;;;12.40;86.30;;;;;;5017235;28;20446;-81
2024/04/07 02:56:33;;;;;;;0.10;0.10;;;12.40;86.40;;;;;;5017190;28;20108;-81
2024/04/07 02:58:59;;;;;;;0.10;0.10;;;12.40;86.30;;;;;;5016755;28;20041;-81
2024/04/07 03:01:24;;;;;;;0.08;0.08;;;12.40;86.60;;;;;;5034307;28;20057;-81
2024/04/07 03:03:50;;;;;;;0.10;0.10;;;12.50;86.40;;;;;;5031925;28;20383;-81
2024/04/07 03:06:16;;;;;;;0.10;0.10;;;12.50;86.20;;;;;;5036990;28;20025;-81
2024/04/07 03:08:42;;;;;;;0.00;0.00;;;12.40;86.40;;;;;;5036461;28;20112;-81
2024/04/07 03:11:07;;;;;;;0.10;0.10;;;12.40;86.30;;;;;;5017248;28;20030;-81
2024/04/07 03:13:34;;;;;;;0.10;0.10;;;12.40;86.50;;;;;;5016838;28;20022;-81
2024/04/07 03:16:00;;;;;;;0.00;0.00;;;12.30;86.50;;;;;;5016889;28;20022;-81
2024/04/07 03:18:25;;;;;;;0.00;0.00;;;12.40;86.60;;;;;;5016481;28;20078;-81
2024/04/07 03:20:52;;;;;;;0.05;0.05;;;12.40;86.70;;;;;;5015390;28;20468;-81
2024/04/07 03:23:18;;;;;;;0.00;0.00;;;12.30;86.40;;;;;;5016528;28;20082;-81
2024/04/07 03:25:43;;;;;;;0.10;0.10;;;12.30;86.50;;;;;;5016853;28;20674;-81
2024/04/07 03:28:09;;;;;;;0.10;0.10;;;12.30;86.50;;;;;;5016643;28;20084;-81
2024/04/07 03:30:36;;;;;;;0.10;0.10;;;12.30;86.70;;;;;;5005631;28;20017;-81
2024/04/07 03:33:02;;;;;;;0.10;0.10;;;12.30;86.90;;;;;;5025729;28;20030;-81
2024/04/07 03:35:29;;;;;;;0.00;0.00;;;12.30;87.00;;;;;;5023107;28;20502;-81
2024/04/07 03:37:55;;;;;;;0.08;0.08;;;12.30;87.00;;;;;;5015561;28;20030;-81
2024/04/07 03:40:21;;;;;;;0.05;0.05;;;12.30;87.10;;;;;;5032255;28;20026;-81
2024/04/07 03:42:47;;;;;;;0.10;0.10;;;12.40;87.00;;;;;;5016671;28;20033;-81
2024/04/07 03:45:13;;;;;;;0.10;0.10;;;12.40;87.10;;;;;;5016414;28;20072;-81
2024/04/07 03:47:39;;;;;;;0.00;0.00;;;12.50;86.70;;;;;;5015648;28;20037;-81
2024/04/07 03:50:07;;;;;;;0.00;0.00;;;12.40;86.60;;;;;;5016700;28;20030;-81
2024/04/07 03:52:33;;;;;;;0.10;0.10;;;12.40;86.50;;;;;;5015894;28;20057;-81
2024/04/07 03:54:59;;;;;;;0.10;0.10;;;12.40;86.60;;;;;;5016214;28;20025;-81
2024/04/07 03:57:24;;;;;;;0.00;0.00;;;12.30;86.80;;;;;;5016507;28;20026;-81
2024/04/07 03:59:50;;;;;;;0.10;0.10;;;12.30;86.80;;;;;;5030249;28;20036;-81
2024/04/07 04:02:28;;;;;;;0.10;0.10;;;12.30;86.90;;;;;;5025947;28;20030;-81
2024/04/07 04:05:01;;;;;;;0.10;0.10;;;12.30;87.10;;;;;;5002505;28;20539;-81
2024/04/07 04:07:28;;;;;;;0.05;0.05;;;12.30;86.90;;;;;;5017464;28;20103;-81
2024/04/07 04:09:55;;;;;;;0.00;0.00;;;12.20;86.90;;;;;;5039480;28;20369;-81
2024/04/07 04:12:25;;;;;;;0.10;0.10;;;12.20;86.70;;;;;;5039869;28;20396;-81
2024/04/07 04:14:52;;;;;;;0.10;0.10;;;12.20;86.80;;;;;;5020813;28;20116;-81
2024/04/07 04:17:18;;;;;;;0.10;0.10;;;12.10;86.80;;;;;;5039565;28;20026;-81
2024/04/07 04:19:44;;;;;;;0.10;0.10;;;12.20;86.70;;;;;;5039998;28;20030;-81
2024/04/07 04:22:09;;;;;;;0.05;0.05;;;12.20;86.70;;;;;;5039749;28;20042;-81
2024/04/07 04:24:35;;;;;;;0.00;0.00;;;12.10;86.70;;;;;;5027743;28;20026;-81
2024/04/07 04:27:02;;;;;;;0.10;0.10;;;12.00;86.80;;;;;;5018541;28;20072;-81
2024/04/07 04:29:35;;;;;;;0.10;0.10;;;12.10;86.80;;;;;;5021459;28;20129;-81
2024/04/07 04:32:01;;;;;;;0.10;0.10;;;12.10;86.80;;;;;;5038682;28;20030;-81
2024/04/07 04:34:28;;;;;;;0.10;0.10;;;12.00;86.60;;;;;;5038164;28;20030;-82
2024/04/07 04:36:55;;;;;;;0.10;0.10;;;12.00;86.60;;;;;;5039047;28;20120;-81
2024/04/07 04:39:21;;;;;;;0.10;0.10;;;12.00;86.80;;;;;;5039322;28;20128;-81
2024/04/07 04:41:48;;;;;;;0.10;0.10;;;12.00;86.90;;;;;;5024850;28;20072;-81
2024/04/07 04:44:15;;;;;;;0.10;0.10;;;12.00;86.60;;;;;;5019319;28;20026;-81
2024/04/07 04:46:42;;;;;;;0.10;0.10;;;11.90;86.80;;;;;;5034139;28;20474;-81
2024/04/07 04:49:15;;;;;;;0.05;0.05;;;11.90;86.90;;;;;;5025781;28;20036;-81
2024/04/07 04:51:41;;;;;;;0.10;0.10;;;11.90;86.90;;;;;;5038954;28;20488;-81
2024/04/07 04:54:06;;;;;;;0.10;0.10;;;11.80;87.10;;;;;;5038985;28;20124;-81
2024/04/07 04:56:32;;;;;;;0.10;0.10;;;11.80;87.00;;;;;;5038269;28;20071;-81
2024/04/07 04:58:59;;;;;;;0.10;0.10;;;11.80;87.10;;;;;;5019228;28;20116;-81
2024/04/07 05:01:25;;;;;;;0.10;0.10;;;11.80;86.90;;;;;;5034297;28;20009;-81
2024/04/07 05:03:52;;;;;;;0.00;0.00;;;11.80;86.80;;;;;;5020989;28;20029;-81
2024/04/07 05:06:19;;;;;;;0.10;0.10;;;11.80;86.80;;;;;;5019184;28;20056;-81
2024/04/07 05:08:45;;;;;;;0.10;0.10;;;11.80;87.00;;;;;;5038914;28;20026;-81
2024/04/07 05:11:11;;;;;;;0.00;0.00;;;11.80;87.00;;;;;;5016685;28;20038;-81
2024/04/07 05:13:37;;;;;;;0.10;0.10;;;11.70;87.00;;;;;;5017520;28;20072;-80
2024/04/07 05:16:03;;;;;;;0.10;0.10;;;11.70;87.00;;;;;;5017942;28;20026;-80
2024/04/07 05:18:30;;;;;;;0.00;0.00;;;11.60;87.30;;;;;;5019188;28;20435;-80
2024/04/07 05:20:56;;;;;;;0.03;0.03;;;11.60;87.40;;;;;;5018578;28;20124;-80
2024/04/07 05:23:22;;;;;;;0.10;0.10;;;11.60;87.30;;;;;;5018549;28;20029;-80
2024/04/07 05:25:48;;;;;;;0.10;0.10;;;11.60;87.40;;;;;;5019059;28;20054;-81
2024/04/07 05:28:14;;;;;;;0.00;0.00;;;11.60;87.50;;;;;;5018456;28;20045;-80
2024/04/07 05:30:39;;;;;;;0.10;0.10;;;11.50;87.60;;;;;;5014609;28;20033;-80
2024/04/07 05:33:06;;;;;;;0.10;0.10;;;11.50;87.70;;;;;;5038227;28;20069;-80
2024/04/07 05:35:32;;;;;;;0.00;0.00;;;11.50;87.70;;;;;;5021209;28;20029;-80
2024/04/07 05:37:59;;;;;;;0.10;0.10;;;11.40;87.90;;;;;;5037812;28;20060;-80
2024/04/07 05:40:25;;;;;;;0.10;0.10;;;11.40;88.10;;;;;;5027273;28;20464;-81
2024/04/07 05:42:54;;;;;;;0.00;0.00;;;11.40;88.20;;;;;;5038172;28;20025;-81
2024/04/07 05:45:20;;;;;;;0.10;0.10;;;11.40;88.20;;;;;;5018334;28;20026;-81
2024/04/07 05:47:52;;;;;;;0.10;0.10;;;11.40;88.30;;;;;;5017628;28;20037;-81
2024/04/07 05:50:18;;;;;;;0.10;0.10;;;11.40;88.30;;;;;;5017375;28;20086;-81
2024/04/07 05:52:44;;;;;;;0.10;0.10;;;11.40;88.30;;;;;;5029589;28;20055;-80
2024/04/07 05:55:10;;;;;;;0.00;0.00;;;11.50;88.20;;;;;;5037703;28;20104;-81
2024/04/07 05:57:36;;;;;;;0.10;0.10;;;11.50;88.20;;;;;;5018165;28;20017;-81
2024/04/07 06:00:09;;;;;;;0.10;0.10;;;11.50;88.20;;;;;;5037365;28;20057;-81
2024/04/07 06:02:35;;;;;;;0.10;0.10;;;11.50;88.10;;;;;;5018812;28;20049;-81
2024/04/07 06:05:02;;;;;;;0.05;0.05;;;11.50;88.10;;;;;;5037508;28;20638;-81
2024/04/07 06:07:27;;;;;;;0.10;0.10;;;11.60;88.10;;;;;;5036896;28;20025;-81
2024/04/07 06:09:53;;;;;;;0.10;0.10;;;11.70;87.90;;;;;;5018334;28;20110;-81
2024/04/07 06:12:19;;;;;;;0.10;0.10;;;11.60;87.80;;;;;;5037261;28;20029;-82
2024/04/07 06:14:46;;;;;;;0.03;0.03;;;11.70;87.90;;;;;;5019597;28;20459;-78
2024/04/07 06:17:11;;;;;;;0.10;0.10;;;11.70;87.90;;;;;;5035687;28;20022;-76
2024/04/07 06:19:37;;;;;;;0.10;0.10;;;11.80;87.50;;;;;;5036856;28;20045;-78
2024/04/07 06:22:03;;;;;;;0.10;0.10;;;11.70;87.50;;;;;;5034021;28;20041;-77
2024/04/07 06:24:29;;;;;;;0.10;0.10;;;11.80;87.50;;;;;;5019395;28;20037;-75
2024/04/07 06:26:54;;;;;;;0.10;0.10;;;11.80;87.30;;;;;;5019403;28;20030;-77
2024/04/07 06:29:20;;;;;;;0.10;0.10;;;11.80;87.40;;;;;;5016653;28;20117;-78
2024/04/07 06:31:46;;;;;;;0.10;0.10;;;11.80;87.30;;;;;;5036882;28;20163;-77
2024/04/07 06:34:11;;;;;;;0.10;0.10;;;11.80;87.30;;;;;;5035536;28;20029;-76
2024/04/07 06:36:37;;;;;;;0.10;0.10;;;11.80;87.20;;;;;;5016643;28;20025;-77
2024/04/07 06:39:02;;;;;;;0.10;0.10;;;11.80;87.20;;;;;;5017267;28;20086;-76
2024/04/07 06:41:28;;;;;;;0.10;0.10;;;11.90;87.30;;;;;;5032739;28;20024;-77
2024/04/07 06:43:54;;;;;;;0.10;0.10;;;11.90;87.10;;;;;;5015212;28;20053;-77
2024/04/07 06:46:19;;;;;;;0.03;0.03;;;12.00;87.00;;;;;;4999859;28;20061;-78
2024/04/07 06:48:45;;;;;;;0.10;0.10;;;12.00;86.90;;;;;;5017117;28;20104;-76
2024/04/07 06:51:11;;;;;;;0.10;0.10;;;12.10;86.90;;;;;;5016976;28;20058;-79
2024/04/07 06:53:37;;;;;;;0.10;0.10;;;12.20;86.80;;;;;;5015562;28;20061;-78
2024/04/07 06:56:03;;;;;;;0.10;0.10;;;12.30;86.50;;;;;;5015512;28;20098;-84
2024/04/07 06:58:31;;;;;;;0.10;0.10;;;12.30;86.20;;;;;;5016777;28;20026;-78
2024/04/07 07:00:57;;;;;;;0.10;0.10;;;12.40;85.90;;;;;;5028967;28;20077;-77
2024/04/07 07:03:22;;;;;;;0.10;0.10;;;12.40;85.90;;;;;;5024971;28;20033;-78
2024/04/07 07:05:49;;;;;;;0.10;0.10;;;12.50;85.90;;;;;;5015350;28;20076;-78
2024/04/07 07:08:15;;;;;;;0.10;0.10;;;12.50;85.70;;;;;;5019063;28;20022;-77
2024/04/07 07:10:40;;;;;;;0.10;0.10;;;12.70;85.50;;;;;;5014673;28;20076;-78
2024/04/07 07:13:06;;;;;;;0.10;0.10;;;12.70;85.30;;;;;;5046195;28;20467;-77
2024/04/07 07:15:32;;;;;;;0.10;0.10;;;12.80;85.20;;;;;;5020215;28;20017;-78
2024/04/07 07:17:57;;;;;;;0.10;0.10;;;12.80;85.00;;;;;;5036306;28;20044;-78
2024/04/07 07:20:23;;;;;;;0.10;0.10;;;13.00;84.60;;;;;;5019285;28;20396;-77
2024/04/07 07:22:49;;;;;;;0.10;0.10;;;13.10;84.20;;;;;;5040291;28;20085;-77
2024/04/07 07:25:14;;;;;;;0.20;0.20;;;13.30;83.60;;;;;;5053335;28;20694;-77
2024/04/07 07:27:40;;;;;;;0.10;0.10;;;13.80;83.20;;;;;;5050106;28;20084;-78
2024/04/07 07:30:06;;;;;;;0.20;0.20;;;14.30;80.80;;;;;;5034967;28;20064;-78
2024/04/07 07:32:32;;;;;;;0.20;0.20;;;15.10;80.00;;;;;;5055584;28;20123;-78
2024/04/07 07:34:58;;;;;;;0.40;0.40;;;15.80;76.50;;;;;;5055995;28;20029;-78
2024/04/07 07:37:23;;;;;;;0.40;0.40;;;17.00;73.10;;;;;;5047443;28;20048;-76
2024/04/07 07:39:49;;;;;;;0.45;0.45;;;19.20;66.90;;;;;;5049665;28;20031;-77
2024/04/07 07:42:14;;;;;;;0.40;0.40;;;20.70;60.70;;;;;;5054725;28;20037;-76
2024/04/07 07:44:40;;;;;;;0.40;0.40;;;21.70;57.60;;;;;;5053640;28;20096;-76
2024/04/07 07:47:06;;;;;;;0.40;0.40;;;22.60;54.80;;;;;;5050848;28;20057;-79
2024/04/07 07:49:31;;;;;;;2.60;2.53;;;23.20;52.00;;;;;;5033553;28;20462;-78
2024/04/07 07:51:57;;;;;;;0.50;0.50;;;23.30;50.70;;;;;;5043133;28;20037;-77
2024/04/07 07:54:24;;;;;;;0.60;0.60;;;24.00;50.20;;;;;;5037641;28;20135;-77
2024/04/07 07:56:50;;;;;;;0.60;0.60;;;23.90;49.20;;;;;;5051397;28;20459;-77
2024/04/07 07:59:15;;;;;;;0.60;0.60;;;24.10;48.30;;;;;;5043685;28;20104;-76
2024/04/07 08:01:41;;;;;;;0.50;0.50;;;24.40;48.10;;;;;;5044655;28;20052;-75
2024/04/07 08:04:06;;;;;;;0.20;0.20;;;24.40;47.20;;;;;;5047777;28;20096;-75
2024/04/07 08:06:32;;;;;;;8.27;7.95;;;24.90;46.80;;;;;;5054013;28;20109;-75
2024/04/07 08:08:58;;;;;;;2.53;2.42;;;24.30;46.30;;;;;;5050663;28;20039;-75
2024/04/07 08:11:23;;;;;;;0.63;0.63;;;23.90;47.70;;;;;;5034348;28;20497;-75
2024/04/07 08:13:50;;;;;;;0.30;0.30;;;23.60;49.00;;;;;;5049946;28;20028;-75
2024/04/07 08:16:16;;;;;;;0.57;0.57;;;23.50;48.50;;;;;;5051740;28;20041;-75
2024/04/07 08:18:42;;;;;;;0.10;0.10;;;23.20;49.00;;;;;;5054422;28;20670;-75
2024/04/07 08:21:07;;;;;;;0.10;0.10;;;22.30;50.90;;;;;;5045746;28;20049;-75
2024/04/07 08:23:33;;;;;;;0.20;0.20;;;20.80;54.00;;;;;;5034324;28;20033;-75
2024/04/07 08:25:59;;;;;;;10.07;9.68;;;20.70;55.50;;;;;;5031736;28;20041;-75
2024/04/07 08:28:25;;;;;;;3.85;3.65;;;21.60;54.50;;;;;;5027791;28;20025;-79
2024/04/07 08:30:51;;;;;;;0.50;0.50;;;22.70;51.10;;;;;;5016040;28;20546;-75
2024/04/07 08:33:17;;;;;;;0.40;0.40;;;23.30;49.20;;;;;;5033759;28;20024;-75
2024/04/07 08:35:45;;;;;;;0.43;0.43;;;23.10;51.00;;;;;;5032144;28;20030;-75
2024/04/07 08:38:10;;;;;;;1.27;1.27;;;23.00;50.30;;;;;;5016654;28;20055;-76
2024/04/07 08:40:39;;;;;;;8.07;7.75;;;23.60;48.60;;;;;;5032646;28;20449;-74
2024/04/07 08:43:08;;;;;;;0.60;0.60;;;24.20;46.00;;;;;;5031473;28;20099;-75
2024/04/07 08:45:34;;;;;;;12.35;11.88;;;24.00;45.60;;;;;;5017568;28;20117;-74
2024/04/07 08:48:01;;;;;;;1.52;1.48;;;24.50;45.10;;;;;;5031582;28;20037;-75
2024/04/07 08:50:27;;;;;;;3.88;3.72;;;24.50;43.50;;;;;;5037272;28;20021;-75
2024/04/07 08:52:55;;;;;;;0.60;0.60;;;24.80;42.30;;;;;;5020639;28;20045;-75
2024/04/07 08:55:23;;;;;;;0.82;0.82;;;25.20;42.10;;;;;;5025937;28;20513;-75
2024/04/07 08:57:50;;;;;;;0.30;0.30;;;24.30;43.50;;;;;;5015805;28;20533;-75
2024/04/07 09:00:16;;;;;;;0.90;0.90;;;24.50;43.50;;;;;;5034337;28;20116;-75
2024/04/07 09:02:42;;;;;;;5.78;5.57;;;23.80;43.90;;;;;;5019724;28;20476;-74
2024/04/07 09:05:08;;;;;;;1.00;1.00;;;24.10;44.50;;;;;;5037184;28;20025;-75
2024/04/07 09:07:34;;;;;;;4.20;4.03;;;24.70;43.30;;;;;;5041012;28;20082;-75
2024/04/07 09:10:00;;;;;;;0.45;0.45;;;24.80;43.00;;;;;;5039005;28;20021;-75
2024/04/07 09:12:25;;;;;;;0.10;0.10;;;24.30;42.60;;;;;;5036476;28;21436;-75
2024/04/07 09:14:51;;;;;;;3.55;3.42;;;23.10;44.50;;;;;;5036776;28;20499;-75
2024/04/07 09:17:18;;;;;;;1.00;1.00;;;22.50;46.40;;;;;;5038836;28;20391;-76
2024/04/07 09:19:43;;;;;;;0.00;0.00;;;21.60;48.30;;;;;;5043037;28;20022;-74
2024/04/07 09:22:09;;;;;;;0.10;0.10;;;20.60;51.10;;;;;;5056948;28;20112;-75
2024/04/07 09:24:38;;;;;;;0.10;0.10;;;20.10;52.60;;;;;;5052641;28;20132;-74
2024/04/07 09:27:06;;;;;;;0.20;0.20;;;20.10;53.20;;;;;;5050171;28;20037;-74
2024/04/07 09:29:34;;;;;;;0.40;0.40;;;20.10;54.20;;;;;;5051584;28;20024;-75
2024/04/07 09:32:00;;;;;;;0.30;0.30;;;20.60;52.70;;;;;;5052725;28;20028;-74
2024/04/07 09:34:26;;;;;;;0.30;0.30;;;21.10;51.60;;;;;;5053086;28;20107;-77
2024/04/07 09:36:55;;;;;;;0.60;0.60;;;21.20;51.30;;;;;;5032257;28;20024;-75
2024/04/07 09:39:20;;;;;;;0.30;0.30;;;21.40;49.80;;;;;;5031243;28;20773;-75
2024/04/07 09:41:47;;;;;;;0.30;0.30;;;21.70;49.70;;;;;;5050335;28;20159;-75
2024/04/07 09:44:19;;;;;;;0.20;0.20;;;21.50;50.20;;;;;;5057289;28;20614;-75
2024/04/07 09:46:45;;;;;;;0.10;0.10;;;21.70;49.50;;;;;;5057277;28;20114;-75
2024/04/07 09:49:12;;;;;;;0.30;0.30;;;21.10;49.70;;;;;;5056601;28;20041;-75
2024/04/07 09:52:04;;;;;;;0.10;0.10;;;21.10;50.10;;;;;;5039838;28;20028;-75
2024/04/07 09:54:44;;;;;;;0.10;0.10;;;20.80;50.00;;;;;;5052210;28;20032;-76
2024/04/07 09:57:15;;;;;;;0.10;0.10;;;20.20;50.70;;;;;;5052880;28;20086;-76
2024/04/07 09:59:43;;;;;;;0.10;0.10;;;20.10;50.80;;;;;;5056687;28;20067;-75
2024/04/07 10:02:10;;;;;;;0.20;0.20;;;20.20;51.70;;;;;;5052371;28;20100;-77
2024/04/07 10:04:38;;;;;;;0.20;0.20;;;20.50;52.40;;;;;;5057239;28;20436;-79
2024/04/07 10:07:05;;;;;;;0.10;0.10;;;20.50;52.00;;;;;;5054972;28;20025;-77
2024/04/07 10:09:32;;;;;;;0.10;0.10;;;20.20;52.60;;;;;;5057389;28;20029;-76
2024/04/07 10:11:58;;;;;;;0.10;0.10;;;19.80;52.80;;;;;;5057227;28;20526;-82
2024/04/07 10:14:35;;;;;;;0.20;0.20;;;19.70;53.30;;;;;;5037225;28;20029;-81
2024/04/07 10:17:23;;;;;;;0.10;0.10;;;19.30;54.00;;;;;;5050344;28;20044;-79
2024/04/07 10:19:51;;;;;;;0.20;0.20;;;18.90;55.60;;;;;;5050524;28;20395;-77
2024/04/07 10:22:17;;;;;;;0.10;0.10;;;18.90;56.20;;;;;;5052311;28;20045;-80
2024/04/07 10:24:51;;;;;;;0.10;0.10;;;19.30;55.90;;;;;;5052584;28;20017;-78
2024/04/07 10:27:22;;;;;;;0.10;0.10;;;19.20;55.00;;;;;;5055616;28;20017;-78
2024/04/07 10:29:52;;;;;;;0.10;0.10;;;19.20;55.10;;;;;;5036440;28;20029;-75
2024/04/07 10:32:28;;;;;;;0.10;0.10;;;19.30;55.20;;;;;;5053115;28;20036;-80
2024/04/07 10:35:06;;;;;;;0.10;0.10;;;19.20;54.90;;;;;;5051178;28;20116;-77
2024/04/07 10:37:33;;;;;;;0.10;0.10;;;19.50;54.50;;;;;;5054694;28;20025;-76
2024/04/07 10:40:02;;;;;;;0.10;0.10;;;19.70;53.40;;;;;;5055847;28;20070;-75
2024/04/07 10:42:28;;;;;;;0.10;0.10;;;19.50;54.10;;;;;;5056851;28;20085;-77
2024/04/07 10:44:55;;;;;;;0.10;0.10;;;19.50;52.90;;;;;;5038684;28;20451;-77
2024/04/07 10:47:21;;;;;;;0.10;0.10;;;19.70;54.30;;;;;;5039164;28;20468;-75
2024/04/07 10:49:47;;;;;;;0.10;0.10;;;19.80;54.10;;;;;;5056881;28;20097;-75
2024/04/07 10:52:18;;;;;;;0.10;0.10;;;19.70;53.50;;;;;;5041097;28;20061;-75
2024/04/07 10:54:45;;;;;;;0.10;0.10;;;19.70;54.00;;;;;;5034983;28;20039;-75
2024/04/07 10:57:14;;;;;;;0.10;0.10;;;19.70;53.70;;;;;;5038347;28;20096;-76
2024/04/07 10:59:40;;;;;;;0.10;0.10;;;19.70;53.90;;;;;;5050200;28;20020;-76
2024/04/07 11:02:07;;;;;;;0.10;0.10;;;19.80;53.00;;;;;;5056671;28;20024;-76
2024/04/07 11:04:34;;;;;;;0.10;0.10;;;19.70;52.70;;;;;;5056604;28;20029;-74
2024/04/07 11:07:01;;;;;;;0.10;0.10;;;19.60;52.70;;;;;;5039325;28;20167;-77
2024/04/07 11:09:27;;;;;;;0.10;0.10;;;19.50;53.10;;;;;;5037963;28;20033;-78
2024/04/07 11:12:00;;;;;;;0.10;0.10;;;19.30;53.40;;;;;;5037913;28;20032;-80
2024/04/07 11:14:26;;;;;;;;;;;19.40;52.60;;;;;;5056843;28;20483;-81
2024/04/07 11:16:55;;;;;;;0.10;0.10;;;19.30;52.10;;;;;;5052914;28;20015;-80
2024/04/07 11:19:23;;;;;;;0.10;0.10;;;19.60;53.30;;;;;;5052702;28;20021;-84
2024/04/07 11:21:49;;;;;;;0.10;0.10;;;19.80;52.60;;;;;;5056831;28;20041;-83
2024/04/07 11:24:16;;;;;;;0.05;0.05;;;19.80;51.00;;;;;;5036020;28;20036;-78
2024/04/07 11:26:42;;;;;;;0.10;0.10;;;19.90;52.80;;;;;;5053874;28;20423;-81
2024/04/07 11:29:10;;;;;;;0.10;0.10;;;19.70;52.50;;;;;;5035812;28;20037;-78
2024/04/07 11:31:36;;;;;;;0.10;0.10;;;19.60;51.30;;;;;;5028445;28;20024;-78
2024/04/07 11:34:01;;;;;;;0.10;0.10;;;19.60;51.60;;;;;;5031845;28;20045;-79
2024/04/07 11:36:27;;;;;;;0.10;0.10;;;19.80;52.80;;;;;;5035343;28;20576;-79
2024/04/07 11:38:53;;;;;;;0.10;0.10;;;19.90;51.30;;;;;;5053219;28;20023;-79
2024/04/07 11:41:18;;;;;;;0.00;0.00;;;20.00;49.80;;;;;;5049696;28;20022;-79
2024/04/07 11:43:44;;;;;;;0.00;0.00;;;19.80;51.00;;;;;;5052287;28;20032;-79
2024/04/07 11:46:10;;;;;;;0.00;0.00;;;19.70;50.90;;;;;;5050005;28;20569;-79
2024/04/07 11:48:37;;;;;;;0.10;0.10;;;19.40;51.40;;;;;;5054203;28;20032;-79
2024/04/07 11:51:03;;;;;;;0.10;0.10;;;19.10;50.20;;;;;;5035813;28;20112;-79
2024/04/07 11:53:28;;;;;;;0.10;0.10;;;19.00;51.40;;;;;;5054226;28;20029;-79
2024/04/07 11:55:54;;;;;;;0.10;0.10;;;19.10;51.70;;;;;;5054175;28;20077;-79
2024/04/07 11:58:20;;;;;;;0.10;0.10;;;19.20;50.90;;;;;;5036741;28;20025;-78
2024/04/07 12:00:46;;;;;;;0.10;0.10;;;19.40;51.50;;;;;;5053659;28;20094;-79
2024/04/07 12:03:11;;;;;;;0.10;0.10;;;19.70;50.90;;;;;;5052657;28;20021;-79
2024/04/07 12:05:39;;;;;;;0.10;0.10;;;20.20;51.40;;;;;;5052051;28;20056;-79
2024/04/07 12:08:06;;;;;;;0.10;0.10;;;20.40;50.60;;;;;;5054115;28;20044;-79
2024/04/07 12:10:34;;;;;;;0.10;0.10;;;20.70;49.90;;;;;;5052813;28;20108;-79
2024/04/07 12:13:00;;;;;;;0.10;0.10;;;20.30;49.30;;;;;;5035266;28;20029;-79
2024/04/07 12:15:26;;;;;;;0.10;0.10;;;20.20;50.30;;;;;;5052723;28;20087;-80
2024/04/07 12:17:51;;;;;;;0.10;0.10;;;19.80;50.70;;;;;;5053874;28;20466;-79
2024/04/07 12:20:17;;;;;;;0.10;0.10;;;19.80;50.90;;;;;;5052379;28;20519;-79
2024/04/07 12:22:43;;;;;;;0.10;0.10;;;19.50;51.50;;;;;;5054403;28;20037;-80
2024/04/07 12:25:08;;;;;;;0.10;0.10;;;19.70;51.40;;;;;;5038321;28;20021;-80
2024/04/07 12:27:36;;;;;;;0.10;0.10;;;19.40;51.00;;;;;;5058001;28;20028;-82
2024/04/07 12:30:02;;;;;;;0.05;0.05;;;19.20;51.40;;;;;;5052491;28;20035;-81
2024/04/07 12:32:29;;;;;;;0.00;0.00;;;19.10;52.50;;;;;;5057793;28;20033;-80
2024/04/07 12:34:54;;;;;;;0.00;0.00;;;18.90;53.30;;;;;;5055611;28;20399;-80
2024/04/07 12:37:20;;;;;;;0.03;0.03;;;18.70;53.10;;;;;;5056981;28;20024;-79
2024/04/07 12:39:46;;;;;;;0.10;0.10;;;18.60;52.90;;;;;;5056885;28;20071;-80
2024/04/07 12:42:11;;;;;;;0.10;0.10;;;18.40;53.50;;;;;;5054004;28;20025;-80
2024/04/07 12:44:37;;;;;;;0.10;0.10;;;18.50;54.00;;;;;;5057012;28;20033;-80
2024/04/07 12:47:03;;;;;;;0.10;0.10;;;18.50;53.30;;;;;;5053476;28;20029;-80